Time;durP1;ratioP1;P1;durP2;ratioP2;P2;SDS_P1;SDS_P2;PMS_P1;PMS_P2;Temp;Humidity;BMP_temperature;BMP_pressure;BME280_temperature;BME280_humidity;BME280_pressure;Samples;Min_cycle;Max_cycle;Signal;HPM_P1;HPM_P2
2023/06/27 00:01:22;;;;;;;5.53;2.88;;;;;;;13.79;70.06;101774.66;4993831;28;20112;-92
2023/06/27 00:03:51;;;;;;;5.95;3.13;;;;;;;13.70;70.52;101775.00;4988214;28;20030;-95
2023/06/27 00:06:19;;;;;;;5.55;2.97;;;;;;;13.64;70.60;101771.19;4989106;28;20898;-93
2023/06/27 00:08:49;;;;;;;4.53;3.25;;;;;;;13.59;71.03;101768.25;4984920;28;20029;-93
2023/06/27 00:11:14;;;;;;;4.80;3.10;;;;;;;13.71;71.20;101780.22;4982479;28;20035;-92
2023/06/27 00:13:41;;;;;;;3.38;3.03;;;;;;;13.87;70.67;101778.25;4990598;28;20080;-92
2023/06/27 00:16:12;;;;;;;6.18;3.65;;;;;;;13.82;70.94;101783.41;4998462;28;20072;-92
2023/06/27 00:18:38;;;;;;;4.43;3.47;;;;;;;13.83;71.15;101774.28;4998898;28;20048;-91
2023/06/27 00:21:05;;;;;;;5.30;3.10;;;;;;;13.79;71.03;101774.66;5028491;28;20473;-94
2023/06/27 00:23:35;;;;;;;6.45;3.30;;;;;;;13.79;71.66;101774.66;5026476;28;20036;-92
2023/06/27 00:26:02;;;;;;;4.80;3.67;;;;;;;13.82;71.57;101778.00;5014519;28;20528;-93
2023/06/27 00:28:28;;;;;;;4.45;3.25;;;;;;;13.98;71.38;101771.47;5000380;28;20050;-90
2023/06/27 00:30:53;;;;;;;4.82;3.15;;;;;;;14.03;71.03;101771.72;5042553;28;20035;-89
2023/06/27 00:33:18;;;;;;;4.03;3.10;;;;;;;14.02;71.18;101768.16;4993366;28;20055;-90
2023/06/27 00:35:44;;;;;;;5.90;3.58;;;;;;;14.02;71.13;101770.88;5005230;28;20550;-89
2023/06/27 00:38:09;;;;;;;5.25;3.03;;;;;;;14.07;70.63;101771.13;4998816;28;20049;-90
2023/06/27 00:40:34;;;;;;;5.13;3.50;;;;;;;14.02;71.07;101768.16;5001610;28;20040;-89
2023/06/27 00:43:00;;;;;;;7.28;3.58;;;;;;;13.97;71.24;101778.75;4982360;28;20022;-89
2023/06/27 00:45:26;;;;;;;5.88;3.20;;;;;;;13.84;71.56;101781.34;5017341;28;20098;-87
2023/06/27 00:48:02;;;;;;;5.07;3.40;;;;;;;13.75;72.36;101776.09;5000136;28;20048;-89
2023/06/27 00:50:27;;;;;;;;;;;;;;;13.64;72.83;101782.03;4988334;28;20042;-89
2023/06/27 00:52:53;;;;;;;6.43;4.27;;;;;;;13.69;72.63;101774.16;4995146;28;19924;-89
2023/06/27 00:55:18;;;;;;;6.82;3.90;;;;;;;13.72;72.39;101776.50;4978439;28;20030;-89
2023/06/27 00:57:46;;;;;;;6.43;3.90;;;;;;;13.84;72.35;101773.25;4975211;28;20028;-89
2023/06/27 01:00:12;;;;;;;4.72;3.80;;;;;;;13.98;72.09;101771.47;4980118;28;20034;-89
2023/06/27 01:02:38;;;;;;;6.50;3.90;;;;;;;13.92;72.02;101773.94;4993878;28;20033;-90
2023/06/27 01:05:05;;;;;;;6.05;4.22;;;;;;;13.95;72.04;101767.28;4977556;28;20026;-89
2023/06/27 01:07:45;;;;;;;4.53;3.80;;;;;;;13.95;72.20;101761.84;4982982;28;20087;-89
2023/06/27 01:10:22;;;;;;;5.90;4.03;;;;;;;13.90;72.19;101761.63;4983809;28;20412;-89
2023/06/27 01:12:56;;;;;;;6.50;3.85;;;;;;;13.90;72.56;101756.22;4990234;28;20478;-91
2023/06/27 01:15:21;;;;;;;6.20;3.90;;;;;;;13.88;72.54;101756.41;4982859;28;20034;-89
2023/06/27 01:17:47;;;;;;;6.93;4.03;;;;;;;13.82;72.67;101765.31;4978754;28;20038;-89
2023/06/27 01:20:13;;;;;;;6.38;4.10;;;;;;;13.81;72.95;101760.94;5023226;28;20466;-90
2023/06/27 01:22:44;;;;;;;4.40;3.72;;;;;;;13.78;73.35;101761.34;4994309;28;20054;-89
2023/06/27 01:25:12;;;;;;;5.78;3.75;;;;;;;13.77;73.08;101759.66;4962595;28;20037;-89
2023/06/27 01:27:38;;;;;;;7.63;4.20;;;;;;;13.69;73.67;101751.66;4992709;28;20034;-89
2023/06/27 01:30:04;;;;;;;8.98;4.40;;;;;;;13.46;74.31;101752.75;4993391;28;20041;-90
2023/06/27 01:32:44;;;;;;;6.05;4.28;;;;;;;13.25;75.10;101751.69;4993427;28;20039;-90
2023/06/27 01:35:32;;;;;;;8.25;4.40;;;;;;;13.10;76.27;101743.59;4965405;28;20034;-90
2023/06/27 01:38:00;;;;;;;6.50;4.40;;;;;;;13.02;76.54;101741.88;4972682;28;20053;-89
2023/06/27 01:40:26;;;;;;;7.10;4.30;;;;;;;12.95;76.53;101743.69;4999710;28;20036;-88
2023/06/27 01:43:03;;;;;;;6.18;4.90;;;;;;;12.87;77.37;101744.63;4991593;28;20517;-89
2023/06/27 01:45:28;;;;;;;5.82;4.70;;;;;;;12.81;77.45;101744.53;4965520;28;20423;-88
2023/06/27 01:47:54;;;;;;;6.00;4.70;;;;;;;12.70;78.03;101743.19;4971135;28;20046;-89
2023/06/27 01:50:20;;;;;;;6.15;4.80;;;;;;;12.57;78.03;101739.25;4974183;28;20034;-89
2023/06/27 01:52:45;;;;;;;6.63;4.95;;;;;;;12.53;78.83;101748.75;4992524;28;20367;-90
2023/06/27 01:55:10;;;;;;;9.05;5.28;;;;;;;12.61;79.21;101752.41;4996510;28;20035;-90
2023/06/27 01:57:36;;;;;;;6.35;5.05;;;;;;;12.83;79.00;101753.28;4994696;28;20014;-89
2023/06/27 02:00:02;;;;;;;5.40;4.70;;;;;;;12.87;78.65;101744.63;4997934;28;20030;-89
2023/06/27 02:02:27;;;;;;;8.15;4.85;;;;;;;12.89;78.36;101753.34;4992845;28;20033;-89
2023/06/27 02:04:53;;;;;;;7.85;5.80;;;;;;;12.88;78.54;101750.84;5019241;28;20016;-89
2023/06/27 02:07:18;;;;;;;6.22;4.78;;;;;;;12.95;78.59;101756.34;4996393;28;20039;-89
2023/06/27 02:09:44;;;;;;;7.45;4.80;;;;;;;13.00;78.24;101751.22;4975536;28;20023;-89
2023/06/27 02:12:12;;;;;;;6.57;5.20;;;;;;;13.10;77.85;101749.00;4984879;28;20038;-88
2023/06/27 02:14:38;;;;;;;7.35;5.28;;;;;;;13.14;77.54;101755.72;4988814;28;20152;-89
2023/06/27 02:17:04;;;;;;;6.75;5.15;;;;;;;13.24;77.34;101755.41;4992468;28;20026;-92
2023/06/27 02:19:29;;;;;;;6.90;5.13;;;;;;;13.19;77.27;101750.59;4984202;28;20026;-89
2023/06/27 02:21:55;;;;;;;9.35;5.40;;;;;;;13.26;77.29;101749.78;4985357;28;20060;-89
2023/06/27 02:24:21;;;;;;;9.60;5.30;;;;;;;13.34;76.65;101738.88;4991970;28;20412;-89
2023/06/27 02:26:46;;;;;;;6.82;5.40;;;;;;;13.41;76.08;101744.38;4982095;28;20038;-88
2023/06/27 02:29:11;;;;;;;8.82;5.28;;;;;;;13.43;76.35;101739.59;4981185;28;20010;-88
2023/06/27 02:31:37;;;;;;;5.85;5.22;;;;;;;13.41;76.46;101745.22;4973930;28;20405;-89
2023/06/27 02:34:02;;;;;;;7.20;5.88;;;;;;;13.44;76.34;101735.88;4981076;28;20370;-88
2023/06/27 02:36:28;;;;;;;6.95;5.68;;;;;;;13.45;76.36;101735.66;4988622;28;20389;-89
2023/06/27 02:38:54;;;;;;;9.60;5.90;;;;;;;13.48;76.07;101739.88;4991371;28;20075;-90
2023/06/27 02:41:22;;;;;;;8.20;5.72;;;;;;;13.49;75.88;101736.13;4982873;28;20047;-89
2023/06/27 02:43:48;;;;;;;9.77;6.30;;;;;;;13.28;76.66;101734.22;4987846;28;20042;-88
2023/06/27 02:46:13;;;;;;;10.63;6.28;;;;;;;13.36;76.54;101742.22;4980480;28;20356;-89
2023/06/27 02:48:39;;;;;;;10.13;5.70;;;;;;;13.31;76.98;101739.25;4995603;28;20023;-90
2023/06/27 02:51:04;;;;;;;8.93;5.60;;;;;;;13.32;76.55;101739.06;4997493;28;20043;-90
2023/06/27 02:53:29;;;;;;;8.95;5.82;;;;;;;13.29;77.23;101744.00;4984546;28;20540;-88
2023/06/27 02:56:02;;;;;;;8.60;5.78;;;;;;;13.29;77.23;101741.31;4987283;28;20482;-91
2023/06/27 02:58:28;;;;;;;7.63;5.47;;;;;;;13.31;77.05;101736.53;4987679;28;20110;-89
2023/06/27 03:00:53;;;;;;;5.82;5.18;;;;;;;13.39;76.73;101741.84;4999591;28;20058;-90
2023/06/27 03:03:21;;;;;;;7.32;5.50;;;;;;;13.46;76.52;101737.34;4998075;28;20375;-88
2023/06/27 03:05:46;;;;;;;8.93;5.80;;;;;;;13.40;76.82;101735.44;4994591;28;20027;-89
2023/06/27 03:08:12;;;;;;;9.00;5.40;;;;;;;13.28;76.98;101745.88;4989326;28;20030;-89
2023/06/27 03:10:37;;;;;;;9.35;5.32;;;;;;;13.23;77.33;101744.78;4985203;28;20065;-89
2023/06/27 03:13:03;;;;;;;7.10;5.57;;;;;;;13.23;77.56;101747.50;5000341;28;20492;-88
2023/06/27 03:15:28;;;;;;;8.55;5.63;;;;;;;13.36;77.05;101750.31;4982696;28;20022;-89
2023/06/27 03:17:53;;;;;;;9.13;5.60;;;;;;;13.30;77.58;101753.78;4978786;28;20104;-89
2023/06/27 03:20:20;;;;;;;7.15;5.28;;;;;;;13.36;76.98;101753.03;5006054;28;20038;-89
2023/06/27 03:22:46;;;;;;;6.25;5.20;;;;;;;13.29;77.16;101752.13;5011152;28;20042;-89
2023/06/27 03:25:11;;;;;;;10.00;5.25;;;;;;;13.43;76.88;101753.13;4989748;28;20029;-89
2023/06/27 03:27:37;;;;;;;6.20;5.13;;;;;;;13.46;76.76;101758.16;4976757;28;20362;-88
2023/06/27 03:30:03;;;;;;;7.47;5.28;;;;;;;13.52;76.50;101760.06;4983721;28;20080;-88
2023/06/27 03:32:29;;;;;;;6.38;5.10;;;;;;;13.53;76.67;101748.22;4989125;28;20039;-89
2023/06/27 03:34:54;;;;;;;6.85;5.28;;;;;;;13.52;76.55;101751.94;4986916;28;20108;-89
2023/06/27 03:37:20;;;;;;;11.45;5.25;;;;;;;13.60;76.46;101759.09;4998753;27;20176;-90
2023/06/27 03:39:45;;;;;;;5.38;4.80;;;;;;;13.65;76.25;101753.94;4991739;28;20526;-90
2023/06/27 03:42:10;;;;;;;7.30;5.07;;;;;;;13.79;75.75;101760.31;4987696;28;20374;-89
2023/06/27 03:44:36;;;;;;;6.85;5.07;;;;;;;13.74;75.98;101760.03;4988214;28;20037;-90
2023/06/27 03:47:02;;;;;;;6.78;4.82;;;;;;;13.79;76.27;101755.72;4983071;28;20143;-90
2023/06/27 03:49:30;;;;;;;8.52;5.57;;;;;;;13.83;76.29;101758.03;4988782;28;20103;-89
2023/06/27 03:51:56;;;;;;;6.75;5.13;;;;;;;13.84;76.13;101759.69;4995644;28;20060;-90
2023/06/27 03:54:21;;;;;;;7.63;5.15;;;;;;;13.91;75.83;101749.78;4997844;22;20050;-89
2023/06/27 03:56:47;;;;;;;8.88;5.53;;;;;;;13.91;76.15;101757.91;4966584;28;20121;-89
2023/06/27 03:59:12;;;;;;;10.07;5.03;;;;;;;13.94;75.95;101760.22;4972054;28;20532;-90
2023/06/27 04:01:41;;;;;;;6.88;5.35;;;;;;;14.03;75.66;101753.59;4990486;28;20034;-89
2023/06/27 04:04:07;;;;;;;9.27;5.47;;;;;;;14.12;75.41;101754.28;5001031;28;20030;-89
2023/06/27 04:06:32;;;;;;;7.90;5.80;;;;;;;14.13;75.64;101755.97;4992933;28;20030;-89
2023/06/27 04:08:57;;;;;;;8.02;5.05;;;;;;;14.13;75.66;101752.41;4990775;28;20505;-89
2023/06/27 04:11:23;;;;;;;9.20;5.55;;;;;;;14.24;75.47;101765.41;4986502;28;20023;-91
2023/06/27 04:13:48;;;;;;;8.95;5.40;;;;;;;14.27;75.33;101765.00;4988741;28;20035;-88
2023/06/27 04:16:14;;;;;;;6.80;5.32;;;;;;;14.36;75.22;101757.56;4980609;28;20034;-89
2023/06/27 04:18:40;;;;;;;6.25;5.05;;;;;;;14.38;75.17;101761.72;4980323;28;20539;-89
2023/06/27 04:21:06;;;;;;;10.70;5.30;;;;;;;14.50;75.14;101764.72;5003917;27;20042;-95
2023/06/27 04:44:14;;;;;;;9.25;5.72;;;;;;;15.95;70.14;101748.34;5024543;23;20047;-90
2023/06/27 04:46:43;;;;;;;9.48;5.80;;;;;;;16.07;69.91;101752.06;4992683;28;20047;-90
2023/06/27 04:49:08;;;;;;;8.77;5.50;;;;;;;16.16;70.15;101748.09;4997486;28;20022;-87
2023/06/27 04:51:33;;;;;;;8.43;5.95;;;;;;;16.36;69.31;101763.53;4992270;28;20043;-89
2023/06/27 04:54:02;;;;;;;10.27;5.72;;;;;;;16.79;68.27;101764.81;4995568;28;20038;-89
2023/06/27 04:56:27;;;;;;;8.95;5.63;;;;;;;18.16;64.18;101749.00;4988012;28;20128;-88
2023/06/27 04:58:53;;;;;;;10.77;6.13;;;;;;;18.41;62.47;101765.28;4989762;28;20031;-90
2023/06/27 05:01:18;;;;;;;11.13;5.60;;;;;;;18.68;61.90;101770.41;4988374;28;20019;-89
2023/06/27 05:03:43;;;;;;;10.45;5.68;;;;;;;18.80;61.39;101770.47;4980950;28;20038;-86
2023/06/27 05:06:11;;;;;;;8.07;5.15;;;;;;;20.02;58.21;101775.81;4981706;28;20022;-88
2023/06/27 05:08:37;;;;;;;7.90;4.75;;;;;;;20.93;55.53;101763.50;4988841;28;20419;-91
2023/06/27 05:11:03;;;;;;;7.78;4.88;;;;;;;20.97;55.47;101761.94;4994089;28;20097;-90
2023/06/27 05:13:28;;;;;;;9.18;5.35;;;;;;;21.89;52.56;101767.34;4990995;28;20465;-87
2023/06/27 05:15:54;;;;;;;9.38;5.10;;;;;;;22.15;51.70;101761.41;4993941;28;20033;-87
2023/06/27 05:18:19;;;;;;;9.95;4.95;;;;;;;22.75;50.86;101762.47;5060485;28;20020;-87
2023/06/27 05:20:45;;;;;;;7.70;4.20;;;;;;;23.60;48.94;101759.16;5015000;28;20047;-83
2023/06/27 05:23:10;;;;;;;9.55;4.63;;;;;;;23.36;49.15;101755.94;4996269;28;20064;-90
2023/06/27 05:25:36;;;;;;;10.48;4.10;;;;;;;23.16;50.03;101762.88;4999807;28;20026;-90
2023/06/27 05:28:02;;;;;;;10.48;4.82;;;;;;;23.91;47.99;101767.66;5026193;28;20022;-88
2023/06/27 05:30:28;;;;;;;9.98;4.28;;;;;;;24.28;47.26;101763.19;4986968;28;20115;-89
2023/06/27 05:32:54;;;;;;;11.05;4.65;;;;;;;23.93;47.45;101759.13;4988114;28;20117;-88
2023/06/27 05:35:20;;;;;;;9.18;4.40;;;;;;;23.93;47.85;101764.63;4984359;28;20465;-88
2023/06/27 05:37:45;;;;;;;14.18;4.93;;;;;;;22.96;49.88;101757.19;4988389;28;20041;-88
2023/06/27 05:40:11;;;;;;;9.18;4.30;;;;;;;22.93;50.20;101764.03;5011110;28;20193;-89
2023/06/27 05:42:36;;;;;;;9.73;4.10;;;;;;;22.77;50.97;101768.50;5001753;28;20141;-86
2023/06/27 05:45:02;;;;;;;11.25;5.10;;;;;;;21.26;54.45;101764.66;4989953;28;20034;-85
2023/06/27 05:47:27;;;;;;;9.75;4.70;;;;;;;20.82;56.18;101767.94;4987643;28;20026;-88
2023/06/27 05:49:53;;;;;;;12.00;5.07;;;;;;;21.00;55.38;101764.16;4984836;28;20099;-87
2023/06/27 05:52:18;;;;;;;11.52;4.97;;;;;;;20.77;56.49;101772.50;4989574;28;20561;-86
2023/06/27 05:54:43;;;;;;;10.88;4.68;;;;;;;20.84;56.10;101763.06;5023824;28;20317;-88
2023/06/27 05:57:09;;;;;;;10.73;4.70;;;;;;;20.49;56.92;101776.81;5012596;28;20351;-81
2023/06/27 05:59:35;;;;;;;15.68;5.68;;;;;;;19.68;59.42;101767.31;4987674;28;20034;-84
2023/06/27 06:02:00;;;;;;;11.93;4.93;;;;;;;18.77;62.78;101779.97;4987521;28;20045;-83
2023/06/27 06:04:25;;;;;;;14.68;5.88;;;;;;;18.49;64.34;101778.59;4988998;28;20030;-82
2023/06/27 06:06:51;;;;;;;14.38;5.72;;;;;;;18.15;65.87;101780.03;4988924;28;20075;-84
2023/06/27 06:09:16;;;;;;;11.15;5.80;;;;;;;18.37;65.48;101785.03;4984631;28;20087;-91
2023/06/27 06:11:44;;;;;;;10.52;5.18;;;;;;;18.58;64.70;101784.59;5056646;28;20047;-94
2023/06/27 06:14:09;;;;;;;11.63;5.07;;;;;;;18.97;64.01;101786.25;5011805;28;20389;-88
2023/06/27 06:16:34;;;;;;;13.15;5.38;;;;;;;18.85;64.00;101783.41;5001933;28;20038;-91
2023/06/27 06:19:00;;;;;;;11.77;5.85;;;;;;;18.66;64.62;101782.63;5023592;28;20033;-81
2023/06/27 06:21:26;;;;;;;12.38;6.00;;;;;;;18.45;65.35;101776.56;4991405;28;20027;-87
2023/06/27 06:23:52;;;;;;;14.13;5.68;;;;;;;18.22;66.00;101769.88;4991144;28;20033;-81
2023/06/27 06:26:17;;;;;;;10.80;5.53;;;;;;;18.53;65.64;101779.00;5000078;28;20034;-91
2023/06/27 06:28:43;;;;;;;15.50;6.30;;;;;;;18.52;65.16;101777.34;5039326;28;20034;-88
2023/06/27 06:31:10;;;;;;;13.68;5.47;;;;;;;18.72;64.65;101779.81;4997142;28;20031;-90
2023/06/27 06:33:39;;;;;;;12.70;5.60;;;;;;;18.74;64.85;101779.56;4993381;28;20045;-93
2023/06/27 06:36:06;;;;;;;10.18;5.68;;;;;;;19.34;62.57;101780.69;5022846;28;20062;-87
2023/06/27 06:38:31;;;;;;;17.13;6.20;;;;;;;18.88;63.61;101792.00;4988859;28;20145;-90
2023/06/27 06:40:57;;;;;;;11.15;5.53;;;;;;;18.91;64.66;101780.59;4985040;28;20034;-87
2023/06/27 06:43:25;;;;;;;12.68;5.72;;;;;;;20.21;60.29;101783.88;4986951;28;20096;-88
2023/06/27 06:45:54;;;;;;;9.32;5.47;;;;;;;20.48;59.30;101788.81;4996016;28;20018;-87
2023/06/27 06:48:19;;;;;;;13.25;5.75;;;;;;;21.44;56.68;101793.75;4987102;28;20627;-88
2023/06/27 06:50:45;;;;;;;12.38;5.95;;;;;;;21.91;55.20;101797.25;4984506;28;20272;-86
2023/06/27 06:53:10;;;;;;;9.90;4.72;;;;;;;23.67;50.28;101794.66;4981950;28;20028;-86
2023/06/27 06:55:36;;;;;;;11.68;4.72;;;;;;;24.98;46.20;101795.97;4989139;28;20038;-90
2023/06/27 06:58:04;;;;;;;10.68;4.57;;;;;;;25.49;45.02;101794.41;4996132;28;20032;-91
2023/06/27 07:00:30;;;;;;;8.68;4.18;;;;;;;25.55;45.36;101809.84;4987396;28;20045;-90
2023/06/27 07:02:58;;;;;;;10.32;4.55;;;;;;;25.52;44.20;101804.03;4989372;28;20046;-89
2023/06/27 07:05:23;;;;;;;13.23;5.10;;;;;;;24.76;45.52;101800.84;4990216;28;20027;-90
2023/06/27 07:07:49;;;;;;;13.32;5.03;;;;;;;24.76;45.65;101800.84;4990302;28;20477;-90
2023/06/27 07:10:14;;;;;;;10.23;4.00;;;;;;;24.46;45.70;101799.59;4989703;28;20038;-90
2023/06/27 07:12:40;;;;;;;10.88;3.80;;;;;;;24.63;45.37;101794.72;4990066;28;20038;-90
2023/06/27 07:15:06;;;;;;;9.13;4.50;;;;;;;24.76;45.42;101798.09;4990200;28;20026;-90
2023/06/27 07:17:32;;;;;;;9.25;4.10;;;;;;;24.52;45.46;101798.53;4987033;28;20030;-89
2023/06/27 07:19:58;;;;;;;9.85;4.38;;;;;;;23.84;47.07;101783.53;4985997;28;20053;-90
2023/06/27 07:22:23;;;;;;;11.80;4.38;;;;;;;23.70;47.65;101796.91;4983708;28;20025;-90
2023/06/27 07:24:48;;;;;;;10.60;4.65;;;;;;;23.66;47.24;101792.19;4988902;28;20034;-90
2023/06/27 07:27:14;;;;;;;9.45;4.40;;;;;;;23.84;47.00;101797.28;4982442;28;20035;-90
2023/06/27 07:29:42;;;;;;;10.07;4.70;;;;;;;23.41;47.84;101794.47;5022906;28;20392;-89
2023/06/27 07:32:09;;;;;;;11.30;4.07;;;;;;;24.21;46.14;101798.38;4990662;28;20026;-90
2023/06/27 07:34:34;;;;;;;13.00;4.45;;;;;;;24.87;44.96;101793.47;4990877;28;20030;-90
2023/06/27 07:37:00;;;;;;;9.55;4.20;;;;;;;26.60;41.05;101794.75;4992510;28;20042;-89
2023/06/27 07:39:25;;;;;;;8.25;4.20;;;;;;;26.12;41.87;101798.78;4993415;28;20037;-90
2023/06/27 07:41:51;;;;;;;9.07;3.67;;;;;;;27.14;38.45;101809.69;4987508;28;20035;-87
2023/06/27 07:44:16;;;;;;;8.85;3.70;;;;;;;27.74;36.57;101802.31;5009623;28;20122;-90
2023/06/27 07:46:41;;;;;;;11.57;3.80;;;;;;;28.73;35.64;101806.53;4988555;28;20036;-90
2023/06/27 07:49:07;;;;;;;7.85;3.35;;;;;;;29.14;34.68;101807.06;4987218;28;20037;-91
2023/06/27 07:51:36;;;;;;;9.13;3.20;;;;;;;29.76;32.89;101798.56;5000587;28;20504;-89
2023/06/27 07:54:02;;;;;;;9.77;3.63;;;;;;;29.28;32.56;101804.38;4995590;28;20404;-90
2023/06/27 07:56:28;;;;;;;9.20;3.80;;;;;;;29.78;32.33;101801.03;4995499;28;20022;-90
2023/06/27 07:58:53;;;;;;;8.25;3.28;;;;;;;28.77;35.17;101803.97;4992166;28;20033;-90
2023/06/27 08:01:19;;;;;;;8.30;3.50;;;;;;;28.13;35.91;101795.88;5033051;28;20029;-89
2023/06/27 08:03:44;;;;;;;11.48;3.80;;;;;;;28.25;35.62;101793.50;4992927;28;20040;-90
2023/06/27 08:06:14;;;;;;;9.18;4.00;;;;;;;28.52;34.57;101803.19;5008878;28;20032;-89
2023/06/27 08:08:40;;;;;;;7.32;2.65;;;;;;;28.64;32.70;101793.59;5012680;28;20052;-90
2023/06/27 08:11:05;;;;;;;3.92;2.20;;;;;;;29.26;30.63;101787.19;5043840;28;20024;-91
2023/06/27 08:13:31;;;;;;;5.50;2.33;;;;;;;28.79;31.78;101796.19;5017062;28;20338;-91
2023/06/27 08:15:56;;;;;;;7.50;2.30;;;;;;;28.97;31.38;101785.41;4992647;28;20060;-91
2023/06/27 08:18:21;;;;;;;5.03;1.98;;;;;;;30.22;29.68;101788.59;5025312;28;20113;-91
2023/06/27 08:20:47;;;;;;;7.13;2.20;;;;;;;29.47;30.33;101780.22;4985642;28;20045;-90
2023/06/27 08:23:12;;;;;;;3.85;1.90;;;;;;;29.25;30.94;101786.38;4998371;28;20124;-91
2023/06/27 08:25:38;;;;;;;6.93;2.28;;;;;;;28.96;31.40;101780.97;5022743;28;20405;-91
2023/06/27 08:28:03;;;;;;;5.13;2.30;;;;;;;29.36;30.97;101780.69;5016427;28;20057;-91
2023/06/27 08:30:29;;;;;;;6.40;2.20;;;;;;;30.77;28.87;101794.41;5007954;28;20143;-91
2023/06/27 08:32:56;;;;;;;4.80;1.80;;;;;;;31.36;27.79;101790.81;5038814;28;20394;-90
2023/06/27 08:35:21;;;;;;;6.05;2.03;;;;;;;31.78;26.58;101785.84;4991945;28;20053;-91
2023/06/27 08:37:47;;;;;;;5.68;1.60;;;;;;;32.07;24.94;101792.88;4991503;28;20127;-91
2023/06/27 08:40:20;;;;;;;4.20;1.65;;;;;;;29.93;28.15;101783.28;5003506;28;20045;-91
2023/06/27 08:42:46;;;;;;;6.47;1.98;;;;;;;28.91;30.60;101786.63;4993858;28;20039;-91
2023/06/27 08:45:11;;;;;;;4.20;1.88;;;;;;;28.58;31.66;101777.06;5008723;28;20109;-91
2023/06/27 08:47:37;;;;;;;6.45;2.40;;;;;;;27.33;33.63;101773.91;4989017;28;20030;-90
2023/06/27 08:50:06;;;;;;;5.15;2.05;;;;;;;28.05;32.70;101771.59;4990711;28;20504;-90
2023/06/27 08:52:36;;;;;;;5.95;2.22;;;;;;;28.74;31.60;101774.13;4985198;28;20565;-90
2023/06/27 08:55:02;;;;;;;7.10;1.70;;;;;;;28.28;31.70;101770.78;4991715;28;20045;-91
2023/06/27 08:57:29;;;;;;;5.63;2.13;;;;;;;28.70;31.64;101767.47;4991775;28;20031;-91
2023/06/27 08:59:55;;;;;;;3.40;1.92;;;;;;;28.48;31.41;101766.09;4992449;28;20046;-91
2023/06/27 09:02:20;;;;;;;6.82;2.20;;;;;;;27.64;33.20;101767.28;4989693;28;20030;-92
2023/06/27 09:04:45;;;;;;;5.97;1.95;;;;;;;27.41;32.83;101763.31;4993227;28;20071;-89
2023/06/27 09:07:11;;;;;;;5.20;1.85;;;;;;;28.67;31.42;101755.06;5028695;28;20370;-91
2023/06/27 09:09:37;;;;;;;5.28;1.77;;;;;;;29.97;29.83;101758.53;4992933;28;20037;-90
2023/06/27 09:12:02;;;;;;;3.42;1.52;;;;;;;30.27;28.13;101759.88;4991677;28;20034;-90
2023/06/27 09:14:28;;;;;;;3.80;1.80;;;;;;;31.33;27.37;101755.28;5003992;28;20031;-92
2023/06/27 09:16:53;;;;;;;5.47;1.98;;;;;;;29.36;29.49;101762.09;4996757;28;20026;-91
2023/06/27 09:19:20;;;;;;;6.45;2.20;;;;;;;29.74;29.12;101744.53;4993857;28;20023;-87
2023/06/27 09:21:47;;;;;;;5.53;1.80;;;;;;;29.11;30.22;101750.28;4992234;28;20062;-93
2023/06/27 09:24:14;;;;;;;6.22;2.50;;;;;;;28.03;31.89;101746.16;4979192;28;20027;-89
2023/06/27 09:26:39;;;;;;;4.95;2.60;;;;;;;26.85;33.92;101740.50;4985742;28;20022;-93
2023/06/27 09:29:05;;;;;;;5.82;2.03;;;;;;;26.09;34.49;101741.38;4998834;28;20048;-93
2023/06/27 09:31:30;;;;;;;6.68;2.10;;;;;;;26.40;34.14;101741.28;5008148;28;20065;-93
2023/06/27 09:34:06;;;;;;;4.47;1.92;;;;;;;26.16;34.17;101741.91;4996961;28;20037;-94
2023/06/27 09:36:33;;;;;;;5.53;2.40;;;;;;;25.79;34.45;101740.31;5005771;28;20045;-93
2023/06/27 09:39:03;;;;;;;3.63;1.92;;;;;;;25.99;34.76;101736.72;4997034;28;20046;-93
2023/06/27 09:41:41;;;;;;;7.75;2.80;;;;;;;25.71;35.96;101740.91;5029301;22;20052;-94
2023/06/27 09:44:25;;;;;;;4.20;1.90;;;;;;;25.37;36.35;101744.22;5066936;28;20028;-92
2023/06/27 09:46:54;;;;;;;7.20;2.45;;;;;;;25.01;37.89;101750.50;5066256;28;20036;-92
2023/06/27 09:49:21;;;;;;;5.95;2.50;;;;;;;24.94;38.09;101752.72;5048032;28;20035;-93
2023/06/27 09:51:49;;;;;;;5.57;1.70;;;;;;;25.24;36.01;101753.84;5064228;28;20021;-93
2023/06/27 09:54:20;;;;;;;4.45;1.80;;;;;;;24.81;36.36;101745.81;5080796;28;20076;-92
2023/06/27 09:56:48;;;;;;;4.97;1.80;;;;;;;24.58;36.29;101752.59;5063185;28;20059;-93
2023/06/27 09:59:16;;;;;;;3.33;1.80;;;;;;;24.16;36.24;101754.34;5070574;28;20095;-93
2023/06/27 10:01:41;;;;;;;4.32;1.80;;;;;;;24.19;36.47;101745.53;5079228;28;20072;-92
2023/06/27 10:04:07;;;;;;;3.85;1.50;;;;;;;24.65;35.69;101759.50;5077318;28;20047;-93
2023/06/27 10:06:32;;;;;;;4.55;2.38;;;;;;;25.91;34.60;101753.00;5086311;28;20027;-91
2023/06/27 10:08:58;;;;;;;5.00;2.40;;;;;;;26.80;32.80;101757.13;5094378;28;20084;-93
2023/06/27 10:11:24;;;;;;;2.80;1.50;;;;;;;27.76;30.39;101759.44;5082358;28;20080;-93
2023/06/27 10:13:50;;;;;;;3.65;1.60;;;;;;;28.87;29.13;101759.50;5097255;28;20055;-92
2023/06/27 10:16:16;;;;;;;4.80;1.50;;;;;;;28.70;28.54;101753.63;5076804;28;20025;-92
2023/06/27 10:18:42;;;;;;;5.10;1.75;;;;;;;27.65;30.04;101746.81;5056493;28;20013;-91
2023/06/27 10:21:07;;;;;;;4.10;1.95;;;;;;;27.77;30.38;101749.19;5077619;28;20016;-93
2023/06/27 10:23:33;;;;;;;2.08;1.38;;;;;;;28.27;29.66;101741.44;5082159;28;20008;-92
2023/06/27 10:25:59;;;;;;;5.50;1.60;;;;;;;28.39;29.46;101741.00;5095314;27;20023;-92
2023/06/27 10:28:24;;;;;;;3.40;1.63;;;;;;;28.89;29.07;101743.41;5097451;28;20108;-89
2023/06/27 10:30:50;;;;;;;2.88;1.60;;;;;;;27.86;30.51;101741.91;5087011;28;20035;-92
2023/06/27 10:33:22;;;;;;;3.35;1.63;;;;;;;27.51;29.60;101746.69;5095651;28;20092;-89
2023/06/27 10:35:50;;;;;;;3.40;1.40;;;;;;;27.37;29.24;101740.94;5064774;28;20028;-89
2023/06/27 10:38:15;;;;;;;3.90;1.52;;;;;;;27.28;30.73;101748.19;5080799;28;20032;-91
2023/06/27 10:40:59;;;;;;;3.40;1.58;;;;;;;27.36;31.95;101745.63;5077029;28;20387;-91
2023/06/27 10:43:47;;;;;;;3.17;1.60;;;;;;;28.38;30.55;101736.59;5075371;28;20025;-91
2023/06/27 10:46:31;;;;;;;3.35;1.90;;;;;;;28.41;29.73;101746.28;5057764;28;20025;-90
2023/06/27 10:49:04;;;;;;;3.42;1.85;;;;;;;28.23;30.41;101748.72;5087798;28;20028;-92
2023/06/27 10:51:45;;;;;;;5.45;1.55;;;;;;;27.84;29.21;101744.94;5095592;28;20020;-89
2023/06/27 10:54:15;;;;;;;4.85;1.70;;;;;;;26.88;31.21;101743.53;5073285;28;20060;-92
2023/06/27 10:56:45;;;;;;;3.28;1.50;;;;;;;27.15;31.65;101744.19;5087091;28;20037;-91
2023/06/27 10:59:12;;;;;;;8.15;1.88;;;;;;;27.32;31.59;101749.28;5066383;28;20063;-91
2023/06/27 11:01:42;;;;;;;11.55;2.20;;;;;;;26.49;33.16;101742.31;5088245;28;20039;-92
2023/06/27 11:04:21;;;;;;;5.78;1.95;;;;;;;25.71;33.70;101738.16;5069779;28;20039;-90
2023/06/27 11:06:47;;;;;;;5.22;1.67;;;;;;;26.10;33.92;101736.66;5077620;28;20039;-95
2023/06/27 11:09:13;;;;;;;5.07;1.60;;;;;;;26.08;32.96;101736.97;5075815;28;20021;-95
2023/06/27 11:11:39;;;;;;;6.60;1.70;;;;;;;26.54;32.93;101735.97;5064741;28;20029;-86
2023/06/27 11:14:08;;;;;;;3.88;1.50;;;;;;;27.28;31.82;101737.16;5059714;28;20116;-79
2023/06/27 11:16:34;;;;;;;4.63;1.70;;;;;;;27.22;30.57;101737.22;5069682;28;20048;-83
2023/06/27 11:19:00;;;;;;;5.22;1.70;;;;;;;27.25;30.67;101744.09;5070010;28;20027;-87
2023/06/27 11:21:25;;;;;;;3.40;1.50;;;;;;;27.98;29.86;101745.09;5059444;28;20029;-88
2023/06/27 11:23:51;;;;;;;6.22;1.88;;;;;;;28.15;29.35;101749.34;5056736;28;20024;-88
2023/06/27 11:26:16;;;;;;;3.85;1.65;;;;;;;27.61;29.82;101754.88;5053974;28;20020;-89
2023/06/27 11:28:42;;;;;;;3.92;1.90;;;;;;;27.39;30.85;101744.25;5072089;28;20032;-89
2023/06/27 11:31:07;;;;;;;5.93;1.88;;;;;;;27.62;31.58;101739.91;5071083;28;20032;-89
2023/06/27 11:33:32;;;;;;;7.38;2.00;;;;;;;27.16;32.73;101748.59;5033503;28;20481;-88
2023/06/27 11:35:58;;;;;;;3.67;1.90;;;;;;;26.14;32.75;101738.59;5055961;28;20039;-88
2023/06/27 11:38:24;;;;;;;3.13;1.60;;;;;;;26.08;32.86;101742.47;5070023;28;20074;-85
2023/06/27 11:40:50;;;;;;;3.63;1.75;;;;;;;25.70;32.87;101750.28;5069074;28;20066;-85
2023/06/27 11:43:15;;;;;;;4.03;1.50;;;;;;;26.01;32.37;101755.72;5062353;28;20029;-84